Columbus, Ohio
Traffic Map
Current Weather Conditions
Columbus, Ohio
Overcast
Overcast
48°
Feels Like: 43°
Wind Chill: 43° Ceiling: 1800
Heat Index: 48° Visibility: 10mi
Dew Point: 47° Wind: 10mph
Humidity: 96% Direction: 180° (S)
Pressure: 29.67in Gusts: 0mph
Raw Report DataKCMH 241222Z 18009KT 10SM FEW010 BKN018 OVC050 09/08 A2967 RMK AO2 RAE14 P0000 T00890083
Traffic Incident Summary
Active as of:
Severity:
Category:
InformationThere was an issue retrieving the traffic information for this location. Please try a different location or try again shortly.
Advertisements